HTV weather

Huntsville Regional Airport
Huntsville, Texas, United States

Public forecast

Using degrees Fahrenheit for public forecast. Weather courtesy of forecast.io.

METAR (pilot weather report)

Retrieved 2019/09/17 02:53 UTC (26 minutes ago):

KUTS 170253Z AUTO VRB03KT 10SM CLR 26/21 A2996 RMK AO2 SLP141 T02610206 53007

TAF (pilot weather forecast)

Forecast is more than 12 hours old.

Retrieved 2019/09/16 00:34 UTC (1 day ago):

TAF KUTS 162332Z 1700/1724 VRB04KT P6SM FEW040 SCT070 FM171200 VRB04KT P6SM SCT020 SCT035 FM171700 11006KT P6SM VCSH SCT030 BKN050 FM172000 12007KT P6SM VCTS SCT035CB BKN050